sensor_id;sensor_type;location;lat;lon;timestamp;P1;durP1;ratioP1;P2;durP2;ratioP2
68319;SDS011;55168;51.120;17.024;2024-01-27T00:00:00;11.2;;;4.3;;
68319;SDS011;55168;51.120;17.024;2024-01-27T00:01:00;11.2;;;4.3;;
68319;SDS011;55168;51.120;17.024;2024-01-27T00:02:00;11.2;;;4.3;;
68319;SDS011;55168;51.120;17.024;2024-01-27T00:03:00;11.2;;;4.3;;
68319;SDS011;55168;51.120;17.024;2024-01-27T00:04:00;11.2;;;4.3;;
68319;SDS011;55168;51.120;17.024;2024-01-27T00:05:00;11.4;;;4.4;;
68319;SDS011;55168;51.120;17.024;2024-01-27T00:06:00;11.4;;;4.4;;
68319;SDS011;55168;51.120;17.024;2024-01-27T00:07:00;11.4;;;4.4;;
68319;SDS011;55168;51.120;17.024;2024-01-27T00:08:00;11.4;;;4.4;;
68319;SDS011;55168;51.120;17.024;2024-01-27T00:09:00;11.4;;;4.4;;
68319;SDS011;55168;51.120;17.024;2024-01-27T00:10:01;8.2;;;4.1;;
68319;SDS011;55168;51.120;17.024;2024-01-27T00:11:00;8.2;;;4.1;;
68319;SDS011;55168;51.120;17.024;2024-01-27T00:12:00;8.2;;;4.1;;
68319;SDS011;55168;51.120;17.024;2024-01-27T00:13:00;8.2;;;4.1;;
68319;SDS011;55168;51.120;17.024;2024-01-27T00:14:00;8.2;;;4.1;;
68319;SDS011;55168;51.120;17.024;2024-01-27T00:15:00;10.1;;;4.3;;
68319;SDS011;55168;51.120;17.024;2024-01-27T00:16:00;10.1;;;4.3;;
68319;SDS011;55168;51.120;17.024;2024-01-27T00:17:00;10.1;;;4.3;;
68319;SDS011;55168;51.120;17.024;2024-01-27T00:18:00;10.1;;;4.3;;
68319;SDS011;55168;51.120;17.024;2024-01-27T00:19:00;10.1;;;4.3;;
68319;SDS011;55168;51.120;17.024;2024-01-27T00:20:00;6.6;;;3.6;;
68319;SDS011;55168;51.120;17.024;2024-01-27T00:21:00;6.6;;;3.6;;
68319;SDS011;55168;51.120;17.024;2024-01-27T00:22:00;6.6;;;3.6;;
68319;SDS011;55168;51.120;17.024;2024-01-27T00:23:00;6.6;;;3.6;;
68319;SDS011;55168;51.120;17.024;2024-01-27T00:24:00;6.6;;;3.6;;
68319;SDS011;55168;51.120;17.024;2024-01-27T00:25:00;8.7;;;4.1;;
68319;SDS011;55168;51.120;17.024;2024-01-27T00:26:01;8.7;;;4.1;;
68319;SDS011;55168;51.120;17.024;2024-01-27T00:27:00;8.7;;;4.1;;
68319;SDS011;55168;51.120;17.024;2024-01-27T00:28:00;8.7;;;4.1;;
68319;SDS011;55168;51.120;17.024;2024-01-27T00:29:00;8.7;;;4.1;;
68319;SDS011;55168;51.120;17.024;2024-01-27T00:30:00;8.5;;;4.0;;
68319;SDS011;55168;51.120;17.024;2024-01-27T00:31:00;8.5;;;4.0;;
68319;SDS011;55168;51.120;17.024;2024-01-27T00:32:00;8.5;;;4.0;;
68319;SDS011;55168;51.120;17.024;2024-01-27T00:33:00;8.5;;;4.0;;
68319;SDS011;55168;51.120;17.024;2024-01-27T00:34:00;8.5;;;4.0;;
68319;SDS011;55168;51.120;17.024;2024-01-27T00:35:00;9.6;;;4.1;;
68319;SDS011;55168;51.120;17.024;2024-01-27T00:36:00;9.6;;;4.1;;
68319;SDS011;55168;51.120;17.024;2024-01-27T00:37:00;9.6;;;4.1;;
68319;SDS011;55168;51.120;17.024;2024-01-27T00:38:00;9.6;;;4.1;;
68319;SDS011;55168;51.120;17.024;2024-01-27T00:39:00;9.6;;;4.1;;
68319;SDS011;55168;51.120;17.024;2024-01-27T00:40:00;9.8;;;4.3;;
68319;SDS011;55168;51.120;17.024;2024-01-27T00:41:00;9.8;;;4.3;;
68319;SDS011;55168;51.120;17.024;2024-01-27T00:42:00;9.8;;;4.3;;
68319;SDS011;55168;51.120;17.024;2024-01-27T00:43:02;9.8;;;4.3;;
68319;SDS011;55168;51.120;17.024;2024-01-27T00:44:00;9.8;;;4.3;;
68319;SDS011;55168;51.120;17.024;2024-01-27T00:45:00;11.3;;;4.4;;
68319;SDS011;55168;51.120;17.024;2024-01-27T00:46:00;11.3;;;4.4;;
68319;SDS011;55168;51.120;17.024;2024-01-27T00:47:00;11.3;;;4.4;;
68319;SDS011;55168;51.120;17.024;2024-01-27T00:48:01;11.3;;;4.4;;
68319;SDS011;55168;51.120;17.024;2024-01-27T00:49:00;11.3;;;4.4;;
68319;SDS011;55168;51.120;17.024;2024-01-27T00:50:00;8.4;;;4.2;;
68319;SDS011;55168;51.120;17.024;2024-01-27T00:51:00;8.4;;;4.2;;
68319;SDS011;55168;51.120;17.024;2024-01-27T00:52:00;8.4;;;4.2;;
68319;SDS011;55168;51.120;17.024;2024-01-27T00:53:00;8.4;;;4.2;;
68319;SDS011;55168;51.120;17.024;2024-01-27T00:54:00;8.4;;;4.2;;
68319;SDS011;55168;51.120;17.024;2024-01-27T00:55:00;8.8;;;4.0;;
68319;SDS011;55168;51.120;17.024;2024-01-27T00:56:00;8.8;;;4.0;;
68319;SDS011;55168;51.120;17.024;2024-01-27T00:57:00;8.8;;;4.0;;
68319;SDS011;55168;51.120;17.024;2024-01-27T00:58:00;8.8;;;4.0;;
68319;SDS011;55168;51.120;17.024;2024-01-27T00:59:00;8.8;;;4.0;;
68319;SDS011;55168;51.120;17.024;2024-01-27T01:00:00;10.9;;;4.1;;
68319;SDS011;55168;51.120;17.024;2024-01-27T01:01:00;10.9;;;4.1;;
68319;SDS011;55168;51.120;17.024;2024-01-27T01:02:00;10.9;;;4.1;;
68319;SDS011;55168;51.120;17.024;2024-01-27T01:03:00;10.9;;;4.1;;
68319;SDS011;55168;51.120;17.024;2024-01-27T01:04:00;10.9;;;4.1;;
68319;SDS011;55168;51.120;17.024;2024-01-27T01:05:01;8.7;;;4.3;;
68319;SDS011;55168;51.120;17.024;2024-01-27T01:06:00;8.7;;;4.3;;
68319;SDS011;55168;51.120;17.024;2024-01-27T01:07:00;8.7;;;4.3;;
68319;SDS011;55168;51.120;17.024;2024-01-27T01:08:00;8.7;;;4.3;;
68319;SDS011;55168;51.120;17.024;2024-01-27T01:09:00;8.7;;;4.3;;
68319;SDS011;55168;51.120;17.024;2024-01-27T01:10:00;11.0;;;4.7;;
68319;SDS011;55168;51.120;17.024;2024-01-27T01:11:00;11.0;;;4.7;;
68319;SDS011;55168;51.120;17.024;2024-01-27T01:12:00;11.0;;;4.7;;
68319;SDS011;55168;51.120;17.024;2024-01-27T01:13:00;11.0;;;4.7;;
68319;SDS011;55168;51.120;17.024;2024-01-27T01:14:00;11.0;;;4.7;;
68319;SDS011;55168;51.120;17.024;2024-01-27T01:15:00;12.2;;;4.2;;
68319;SDS011;55168;51.120;17.024;2024-01-27T01:16:00;12.2;;;4.2;;
68319;SDS011;55168;51.120;17.024;2024-01-27T01:17:00;12.2;;;4.2;;
68319;SDS011;55168;51.120;17.024;2024-01-27T01:18:00;12.2;;;4.2;;
68319;SDS011;55168;51.120;17.024;2024-01-27T01:19:00;12.2;;;4.2;;
68319;SDS011;55168;51.120;17.024;2024-01-27T01:20:00;9.4;;;4.3;;
68319;SDS011;55168;51.120;17.024;2024-01-27T01:21:00;9.4;;;4.3;;
68319;SDS011;55168;51.120;17.024;2024-01-27T01:22:00;9.4;;;4.3;;
68319;SDS011;55168;51.120;17.024;2024-01-27T01:23:00;9.4;;;4.3;;
68319;SDS011;55168;51.120;17.024;2024-01-27T01:24:00;9.4;;;4.3;;
68319;SDS011;55168;51.120;17.024;2024-01-27T01:25:00;8.6;;;3.8;;
68319;SDS011;55168;51.120;17.024;2024-01-27T01:26:00;8.6;;;3.8;;
68319;SDS011;55168;51.120;17.024;2024-01-27T01:27:00;8.6;;;3.8;;
68319;SDS011;55168;51.120;17.024;2024-01-27T01:28:00;8.6;;;3.8;;
68319;SDS011;55168;51.120;17.024;2024-01-27T01:29:00;8.6;;;3.8;;
68319;SDS011;55168;51.120;17.024;2024-01-27T01:30:00;11.4;;;4.2;;
68319;SDS011;55168;51.120;17.024;2024-01-27T01:31:00;11.4;;;4.2;;
68319;SDS011;55168;51.120;17.024;2024-01-27T01:32:00;11.4;;;4.2;;
68319;SDS011;55168;51.120;17.024;2024-01-27T01:33:00;11.4;;;4.2;;
68319;SDS011;55168;51.120;17.024;2024-01-27T01:34:00;11.4;;;4.2;;
68319;SDS011;55168;51.120;17.024;2024-01-27T01:35:00;9.0;;;4.0;;
68319;SDS011;55168;51.120;17.024;2024-01-27T01:36:00;9.0;;;4.0;;
68319;SDS011;55168;51.120;17.024;2024-01-27T01:37:00;9.0;;;4.0;;
68319;SDS011;55168;51.120;17.024;2024-01-27T01:38:00;9.0;;;4.0;;
68319;SDS011;55168;51.120;17.024;2024-01-27T01:39:00;9.0;;;4.0;;
68319;SDS011;55168;51.120;17.024;2024-01-27T01:40:00;9.9;;;4.3;;
68319;SDS011;55168;51.120;17.024;2024-01-27T01:41:00;9.9;;;4.3;;
68319;SDS011;55168;51.120;17.024;2024-01-27T01:42:00;9.9;;;4.3;;
68319;SDS011;55168;51.120;17.024;2024-01-27T01:43:00;9.9;;;4.3;;
68319;SDS011;55168;51.120;17.024;2024-01-27T01:44:00;9.9;;;4.3;;
68319;SDS011;55168;51.120;17.024;2024-01-27T01:45:00;11.5;;;4.2;;
68319;SDS011;55168;51.120;17.024;2024-01-27T01:46:00;11.5;;;4.2;;
68319;SDS011;55168;51.120;17.024;2024-01-27T01:47:00;11.5;;;4.2;;
68319;SDS011;55168;51.120;17.024;2024-01-27T01:48:01;11.5;;;4.2;;
68319;SDS011;55168;51.120;17.024;2024-01-27T01:49:00;11.5;;;4.2;;
68319;SDS011;55168;51.120;17.024;2024-01-27T01:50:01;12.4;;;4.4;;
68319;SDS011;55168;51.120;17.024;2024-01-27T01:51:00;12.4;;;4.4;;
68319;SDS011;55168;51.120;17.024;2024-01-27T01:52:01;12.4;;;4.4;;
68319;SDS011;55168;51.120;17.024;2024-01-27T01:53:00;12.4;;;4.4;;
68319;SDS011;55168;51.120;17.024;2024-01-27T01:54:01;12.4;;;4.4;;
68319;SDS011;55168;51.120;17.024;2024-01-27T01:55:01;9.4;;;3.8;;
68319;SDS011;55168;51.120;17.024;2024-01-27T01:56:01;9.4;;;3.8;;
68319;SDS011;55168;51.120;17.024;2024-01-27T01:57:00;9.4;;;3.8;;
68319;SDS011;55168;51.120;17.024;2024-01-27T01:58:01;9.4;;;3.8;;
68319;SDS011;55168;51.120;17.024;2024-01-27T01:59:00;9.4;;;3.8;;
68319;SDS011;55168;51.120;17.024;2024-01-27T02:00:00;11.4;;;4.5;;
68319;SDS011;55168;51.120;17.024;2024-01-27T02:01:00;11.4;;;4.5;;
68319;SDS011;55168;51.120;17.024;2024-01-27T02:02:00;11.4;;;4.5;;
68319;SDS011;55168;51.120;17.024;2024-01-27T02:03:00;11.4;;;4.5;;
68319;SDS011;55168;51.120;17.024;2024-01-27T02:04:00;11.4;;;4.5;;
68319;SDS011;55168;51.120;17.024;2024-01-27T02:05:00;11.7;;;4.3;;
68319;SDS011;55168;51.120;17.024;2024-01-27T02:06:00;11.7;;;4.3;;
68319;SDS011;55168;51.120;17.024;2024-01-27T02:07:00;11.7;;;4.3;;
68319;SDS011;55168;51.120;17.024;2024-01-27T02:08:00;11.7;;;4.3;;
68319;SDS011;55168;51.120;17.024;2024-01-27T02:09:00;11.7;;;4.3;;
68319;SDS011;55168;51.120;17.024;2024-01-27T02:10:01;11.1;;;4.3;;
68319;SDS011;55168;51.120;17.024;2024-01-27T02:11:00;11.1;;;4.3;;
68319;SDS011;55168;51.120;17.024;2024-01-27T02:12:01;11.1;;;4.3;;
68319;SDS011;55168;51.120;17.024;2024-01-27T02:13:00;11.1;;;4.3;;
68319;SDS011;55168;51.120;17.024;2024-01-27T02:14:00;11.1;;;4.3;;
68319;SDS011;55168;51.120;17.024;2024-01-27T02:15:00;8.9;;;3.8;;
68319;SDS011;55168;51.120;17.024;2024-01-27T02:16:00;8.9;;;3.8;;
68319;SDS011;55168;51.120;17.024;2024-01-27T02:17:00;8.9;;;3.8;;
68319;SDS011;55168;51.120;17.024;2024-01-27T02:18:00;8.9;;;3.8;;
68319;SDS011;55168;51.120;17.024;2024-01-27T02:19:00;8.9;;;3.8;;
68319;SDS011;55168;51.120;17.024;2024-01-27T02:20:00;9.0;;;4.1;;
68319;SDS011;55168;51.120;17.024;2024-01-27T02:21:00;9.0;;;4.1;;
68319;SDS011;55168;51.120;17.024;2024-01-27T02:22:00;9.0;;;4.1;;
68319;SDS011;55168;51.120;17.024;2024-01-27T02:23:00;9.0;;;4.1;;
68319;SDS011;55168;51.120;17.024;2024-01-27T02:24:00;9.0;;;4.1;;
68319;SDS011;55168;51.120;17.024;2024-01-27T02:25:01;12.7;;;4.4;;
68319;SDS011;55168;51.120;17.024;2024-01-27T02:26:00;12.7;;;4.4;;
68319;SDS011;55168;51.120;17.024;2024-01-27T02:27:00;12.7;;;4.4;;
68319;SDS011;55168;51.120;17.024;2024-01-27T02:28:01;12.7;;;4.4;;
68319;SDS011;55168;51.120;17.024;2024-01-27T02:29:00;12.7;;;4.4;;
68319;SDS011;55168;51.120;17.024;2024-01-27T02:30:00;9.5;;;3.9;;
68319;SDS011;55168;51.120;17.024;2024-01-27T02:31:00;9.5;;;3.9;;
68319;SDS011;55168;51.120;17.024;2024-01-27T02:32:00;9.5;;;3.9;;
68319;SDS011;55168;51.120;17.024;2024-01-27T02:33:01;9.5;;;3.9;;
68319;SDS011;55168;51.120;17.024;2024-01-27T02:34:00;9.5;;;3.9;;
68319;SDS011;55168;51.120;17.024;2024-01-27T02:35:00;10.7;;;4.4;;
68319;SDS011;55168;51.120;17.024;2024-01-27T02:36:00;10.7;;;4.4;;
68319;SDS011;55168;51.120;17.024;2024-01-27T02:37:00;10.7;;;4.4;;
68319;SDS011;55168;51.120;17.024;2024-01-27T02:38:00;10.7;;;4.4;;
68319;SDS011;55168;51.120;17.024;2024-01-27T02:39:00;10.7;;;4.4;;
68319;SDS011;55168;51.120;17.024;2024-01-27T02:40:00;10.5;;;4.1;;
68319;SDS011;55168;51.120;17.024;2024-01-27T02:41:00;10.5;;;4.1;;
68319;SDS011;55168;51.120;17.024;2024-01-27T02:42:00;10.5;;;4.1;;
68319;SDS011;55168;51.120;17.024;2024-01-27T02:43:00;10.5;;;4.1;;
68319;SDS011;55168;51.120;17.024;2024-01-27T02:44:00;10.5;;;4.1;;
68319;SDS011;55168;51.120;17.024;2024-01-27T02:45:00;11.1;;;4.2;;
68319;SDS011;55168;51.120;17.024;2024-01-27T02:46:00;11.1;;;4.2;;
68319;SDS011;55168;51.120;17.024;2024-01-27T02:47:00;11.1;;;4.2;;
68319;SDS011;55168;51.120;17.024;2024-01-27T02:48:00;11.1;;;4.2;;
68319;SDS011;55168;51.120;17.024;2024-01-27T02:49:00;11.1;;;4.2;;
68319;SDS011;55168;51.120;17.024;2024-01-27T02:50:00;10.8;;;4.4;;
68319;SDS011;55168;51.120;17.024;2024-01-27T02:51:02;10.8;;;4.4;;
68319;SDS011;55168;51.120;17.024;2024-01-27T02:52:00;10.8;;;4.4;;
68319;SDS011;55168;51.120;17.024;2024-01-27T02:53:00;10.8;;;4.4;;
68319;SDS011;55168;51.120;17.024;2024-01-27T02:54:00;10.8;;;4.4;;
68319;SDS011;55168;51.120;17.024;2024-01-27T02:55:00;11.7;;;4.4;;
68319;SDS011;55168;51.120;17.024;2024-01-27T02:56:00;11.7;;;4.4;;
68319;SDS011;55168;51.120;17.024;2024-01-27T02:57:00;11.7;;;4.4;;
68319;SDS011;55168;51.120;17.024;2024-01-27T02:58:00;11.7;;;4.4;;
68319;SDS011;55168;51.120;17.024;2024-01-27T02:59:00;11.7;;;4.4;;
68319;SDS011;55168;51.120;17.024;2024-01-27T03:00:00;10.2;;;4.2;;
68319;SDS011;55168;51.120;17.024;2024-01-27T03:01:00;10.2;;;4.2;;
68319;SDS011;55168;51.120;17.024;2024-01-27T03:02:00;10.2;;;4.2;;
68319;SDS011;55168;51.120;17.024;2024-01-27T03:03:00;10.2;;;4.2;;
68319;SDS011;55168;51.120;17.024;2024-01-27T03:04:00;10.2;;;4.2;;
68319;SDS011;55168;51.120;17.024;2024-01-27T03:05:00;14.3;;;4.5;;
68319;SDS011;55168;51.120;17.024;2024-01-27T03:06:00;14.3;;;4.5;;
68319;SDS011;55168;51.120;17.024;2024-01-27T03:07:00;14.3;;;4.5;;
68319;SDS011;55168;51.120;17.024;2024-01-27T03:08:00;14.3;;;4.5;;
68319;SDS011;55168;51.120;17.024;2024-01-27T03:09:00;14.3;;;4.5;;
68319;SDS011;55168;51.120;17.024;2024-01-27T03:10:00;12.2;;;4.2;;
68319;SDS011;55168;51.120;17.024;2024-01-27T03:11:00;12.2;;;4.2;;
68319;SDS011;55168;51.120;17.024;2024-01-27T03:12:00;12.2;;;4.2;;
68319;SDS011;55168;51.120;17.024;2024-01-27T03:13:00;12.2;;;4.2;;
68319;SDS011;55168;51.120;17.024;2024-01-27T03:14:00;12.2;;;4.2;;
68319;SDS011;55168;51.120;17.024;2024-01-27T03:15:00;10.3;;;4.3;;
68319;SDS011;55168;51.120;17.024;2024-01-27T03:16:00;10.3;;;4.3;;
68319;SDS011;55168;51.120;17.024;2024-01-27T03:17:00;10.3;;;4.3;;
68319;SDS011;55168;51.120;17.024;2024-01-27T03:18:00;10.3;;;4.3;;
68319;SDS011;55168;51.120;17.024;2024-01-27T03:19:00;10.3;;;4.3;;
68319;SDS011;55168;51.120;17.024;2024-01-27T03:20:00;11.1;;;4.6;;
68319;SDS011;55168;51.120;17.024;2024-01-27T03:21:00;11.1;;;4.6;;
68319;SDS011;55168;51.120;17.024;2024-01-27T03:22:00;11.1;;;4.6;;
68319;SDS011;55168;51.120;17.024;2024-01-27T03:23:00;11.1;;;4.6;;
68319;SDS011;55168;51.120;17.024;2024-01-27T03:24:00;11.1;;;4.6;;
68319;SDS011;55168;51.120;17.024;2024-01-27T03:25:00;7.7;;;4.4;;
68319;SDS011;55168;51.120;17.024;2024-01-27T03:26:02;7.7;;;4.4;;
68319;SDS011;55168;51.120;17.024;2024-01-27T03:27:00;7.7;;;4.4;;
68319;SDS011;55168;51.120;17.024;2024-01-27T03:28:00;7.7;;;4.4;;
68319;SDS011;55168;51.120;17.024;2024-01-27T03:29:00;7.7;;;4.4;;
68319;SDS011;55168;51.120;17.024;2024-01-27T03:30:01;10.6;;;4.7;;
68319;SDS011;55168;51.120;17.024;2024-01-27T03:31:00;10.6;;;4.7;;
68319;SDS011;55168;51.120;17.024;2024-01-27T03:32:00;10.6;;;4.7;;
68319;SDS011;55168;51.120;17.024;2024-01-27T03:33:00;10.6;;;4.7;;
68319;SDS011;55168;51.120;17.024;2024-01-27T03:34:01;10.6;;;4.7;;
68319;SDS011;55168;51.120;17.024;2024-01-27T03:35:00;8.9;;;4.3;;
68319;SDS011;55168;51.120;17.024;2024-01-27T03:36:00;8.9;;;4.3;;
68319;SDS011;55168;51.120;17.024;2024-01-27T03:37:00;8.9;;;4.3;;
68319;SDS011;55168;51.120;17.024;2024-01-27T03:38:00;8.9;;;4.3;;
68319;SDS011;55168;51.120;17.024;2024-01-27T03:39:00;13.0;;;4.3;;
68319;SDS011;55168;51.120;17.024;2024-01-27T03:40:01;13.0;;;4.3;;
68319;SDS011;55168;51.120;17.024;2024-01-27T03:41:00;13.0;;;4.3;;
68319;SDS011;55168;51.120;17.024;2024-01-27T03:42:00;13.0;;;4.3;;
68319;SDS011;55168;51.120;17.024;2024-01-27T03:43:00;13.0;;;4.3;;
68319;SDS011;55168;51.120;17.024;2024-01-27T03:44:00;10.4;;;4.6;;
68319;SDS011;55168;51.120;17.024;2024-01-27T03:45:00;10.4;;;4.6;;
68319;SDS011;55168;51.120;17.024;2024-01-27T03:46:00;10.4;;;4.6;;
68319;SDS011;55168;51.120;17.024;2024-01-27T03:47:00;10.4;;;4.6;;
68319;SDS011;55168;51.120;17.024;2024-01-27T03:48:00;10.4;;;4.6;;
68319;SDS011;55168;51.120;17.024;2024-01-27T03:49:00;11.0;;;4.3;;
68319;SDS011;55168;51.120;17.024;2024-01-27T03:50:00;11.0;;;4.3;;
68319;SDS011;55168;51.120;17.024;2024-01-27T03:51:00;11.0;;;4.3;;
68319;SDS011;55168;51.120;17.024;2024-01-27T03:52:00;11.0;;;4.3;;
68319;SDS011;55168;51.120;17.024;2024-01-27T03:53:00;11.0;;;4.3;;
68319;SDS011;55168;51.120;17.024;2024-01-27T03:54:00;9.2;;;4.3;;
68319;SDS011;55168;51.120;17.024;2024-01-27T03:55:00;9.2;;;4.3;;
68319;SDS011;55168;51.120;17.024;2024-01-27T03:56:00;9.2;;;4.3;;
68319;SDS011;55168;51.120;17.024;2024-01-27T03:57:00;9.2;;;4.3;;
68319;SDS011;55168;51.120;17.024;2024-01-27T03:58:00;9.2;;;4.3;;
68319;SDS011;55168;51.120;17.024;2024-01-27T03:59:00;11.4;;;4.4;;
68319;SDS011;55168;51.120;17.024;2024-01-27T04:00:00;11.4;;;4.4;;
68319;SDS011;55168;51.120;17.024;2024-01-27T04:01:00;11.4;;;4.4;;
68319;SDS011;55168;51.120;17.024;2024-01-27T04:02:00;11.4;;;4.4;;
68319;SDS011;55168;51.120;17.024;2024-01-27T04:03:00;11.4;;;4.4;;
68319;SDS011;55168;51.120;17.024;2024-01-27T04:04:00;9.0;;;4.4;;
68319;SDS011;55168;51.120;17.024;2024-01-27T04:05:00;9.0;;;4.4;;
68319;SDS011;55168;51.120;17.024;2024-01-27T04:06:00;9.0;;;4.4;;
68319;SDS011;55168;51.120;17.024;2024-01-27T04:07:00;9.0;;;4.4;;
68319;SDS011;55168;51.120;17.024;2024-01-27T04:08:00;9.0;;;4.4;;
68319;SDS011;55168;51.120;17.024;2024-01-27T04:09:00;9.6;;;4.2;;
68319;SDS011;55168;51.120;17.024;2024-01-27T04:10:02;9.6;;;4.2;;
68319;SDS011;55168;51.120;17.024;2024-01-27T04:11:00;9.6;;;4.2;;
68319;SDS011;55168;51.120;17.024;2024-01-27T04:12:00;9.6;;;4.2;;
68319;SDS011;55168;51.120;17.024;2024-01-27T04:13:00;9.6;;;4.2;;
68319;SDS011;55168;51.120;17.024;2024-01-27T04:14:00;10.9;;;4.2;;
68319;SDS011;55168;51.120;17.024;2024-01-27T04:15:00;10.9;;;4.2;;
68319;SDS011;55168;51.120;17.024;2024-01-27T04:16:00;10.9;;;4.2;;
68319;SDS011;55168;51.120;17.024;2024-01-27T04:17:00;10.9;;;4.2;;
68319;SDS011;55168;51.120;17.024;2024-01-27T04:18:00;10.9;;;4.2;;
68319;SDS011;55168;51.120;17.024;2024-01-27T04:19:00;15.0;;;4.8;;
68319;SDS011;55168;51.120;17.024;2024-01-27T04:20:00;15.0;;;4.8;;
68319;SDS011;55168;51.120;17.024;2024-01-27T04:21:00;15.0;;;4.8;;
68319;SDS011;55168;51.120;17.024;2024-01-27T04:22:00;15.0;;;4.8;;
68319;SDS011;55168;51.120;17.024;2024-01-27T04:23:01;15.0;;;4.8;;
68319;SDS011;55168;51.120;17.024;2024-01-27T04:24:00;8.8;;;3.9;;
68319;SDS011;55168;51.120;17.024;2024-01-27T04:25:00;8.8;;;3.9;;
68319;SDS011;55168;51.120;17.024;2024-01-27T04:26:00;8.8;;;3.9;;
68319;SDS011;55168;51.120;17.024;2024-01-27T04:27:00;8.8;;;3.9;;
68319;SDS011;55168;51.120;17.024;2024-01-27T04:28:00;8.8;;;3.9;;
68319;SDS011;55168;51.120;17.024;2024-01-27T04:29:00;10.8;;;4.0;;
68319;SDS011;55168;51.120;17.024;2024-01-27T04:30:00;10.8;;;4.0;;
68319;SDS011;55168;51.120;17.024;2024-01-27T04:31:00;10.8;;;4.0;;
68319;SDS011;55168;51.120;17.024;2024-01-27T04:32:00;10.8;;;4.0;;
68319;SDS011;55168;51.120;17.024;2024-01-27T04:33:00;10.8;;;4.0;;
68319;SDS011;55168;51.120;17.024;2024-01-27T04:34:00;11.9;;;4.4;;
68319;SDS011;55168;51.120;17.024;2024-01-27T04:35:00;11.9;;;4.4;;
68319;SDS011;55168;51.120;17.024;2024-01-27T04:36:00;11.9;;;4.4;;
68319;SDS011;55168;51.120;17.024;2024-01-27T04:37:00;11.9;;;4.4;;
68319;SDS011;55168;51.120;17.024;2024-01-27T04:38:00;11.9;;;4.4;;
68319;SDS011;55168;51.120;17.024;2024-01-27T04:39:00;12.0;;;4.5;;
68319;SDS011;55168;51.120;17.024;2024-01-27T04:40:00;12.0;;;4.5;;
68319;SDS011;55168;51.120;17.024;2024-01-27T04:41:00;12.0;;;4.5;;
68319;SDS011;55168;51.120;17.024;2024-01-27T04:42:00;12.0;;;4.5;;
68319;SDS011;55168;51.120;17.024;2024-01-27T04:43:01;12.0;;;4.5;;
68319;SDS011;55168;51.120;17.024;2024-01-27T04:44:00;8.8;;;3.9;;
68319;SDS011;55168;51.120;17.024;2024-01-27T04:45:01;8.8;;;3.9;;
68319;SDS011;55168;51.120;17.024;2024-01-27T04:46:00;8.8;;;3.9;;
68319;SDS011;55168;51.120;17.024;2024-01-27T04:47:00;8.8;;;3.9;;
68319;SDS011;55168;51.120;17.024;2024-01-27T04:48:00;8.8;;;3.9;;
68319;SDS011;55168;51.120;17.024;2024-01-27T04:49:00;11.4;;;4.4;;
68319;SDS011;55168;51.120;17.024;2024-01-27T04:50:00;11.4;;;4.4;;
68319;SDS011;55168;51.120;17.024;2024-01-27T04:51:00;11.4;;;4.4;;
68319;SDS011;55168;51.120;17.024;2024-01-27T04:52:00;11.4;;;4.4;;
68319;SDS011;55168;51.120;17.024;2024-01-27T04:53:00;11.4;;;4.4;;
68319;SDS011;55168;51.120;17.024;2024-01-27T04:54:00;11.6;;;4.2;;
68319;SDS011;55168;51.120;17.024;2024-01-27T04:55:00;11.6;;;4.2;;
68319;SDS011;55168;51.120;17.024;2024-01-27T04:56:00;11.6;;;4.2;;
68319;SDS011;55168;51.120;17.024;2024-01-27T04:57:00;11.6;;;4.2;;
68319;SDS011;55168;51.120;17.024;2024-01-27T04:58:00;11.6;;;4.2;;
68319;SDS011;55168;51.120;17.024;2024-01-27T04:59:00;11.5;;;4.6;;
68319;SDS011;55168;51.120;17.024;2024-01-27T05:00:00;11.5;;;4.6;;
68319;SDS011;55168;51.120;17.024;2024-01-27T05:01:01;11.5;;;4.6;;
68319;SDS011;55168;51.120;17.024;2024-01-27T05:02:00;11.5;;;4.6;;
68319;SDS011;55168;51.120;17.024;2024-01-27T05:03:00;11.5;;;4.6;;
68319;SDS011;55168;51.120;17.024;2024-01-27T05:04:00;9.1;;;3.9;;
68319;SDS011;55168;51.120;17.024;2024-01-27T05:05:01;9.1;;;3.9;;
68319;SDS011;55168;51.120;17.024;2024-01-27T05:06:00;9.1;;;3.9;;
68319;SDS011;55168;51.120;17.024;2024-01-27T05:07:00;9.1;;;3.9;;
68319;SDS011;55168;51.120;17.024;2024-01-27T05:08:00;9.1;;;3.9;;
68319;SDS011;55168;51.120;17.024;2024-01-27T05:09:00;10.5;;;4.2;;
68319;SDS011;55168;51.120;17.024;2024-01-27T05:10:00;10.5;;;4.2;;
68319;SDS011;55168;51.120;17.024;2024-01-27T05:11:00;10.5;;;4.2;;
68319;SDS011;55168;51.120;17.024;2024-01-27T05:12:00;10.5;;;4.2;;
68319;SDS011;55168;51.120;17.024;2024-01-27T05:13:00;10.5;;;4.2;;
68319;SDS011;55168;51.120;17.024;2024-01-27T05:14:00;11.0;;;4.3;;
68319;SDS011;55168;51.120;17.024;2024-01-27T05:15:00;11.0;;;4.3;;
68319;SDS011;55168;51.120;17.024;2024-01-27T05:16:00;11.0;;;4.3;;
68319;SDS011;55168;51.120;17.024;2024-01-27T05:17:00;11.0;;;4.3;;
68319;SDS011;55168;51.120;17.024;2024-01-27T05:18:00;11.0;;;4.3;;
68319;SDS011;55168;51.120;17.024;2024-01-27T05:19:00;10.5;;;4.1;;
68319;SDS011;55168;51.120;17.024;2024-01-27T05:20:00;10.5;;;4.1;;
68319;SDS011;55168;51.120;17.024;2024-01-27T05:21:00;10.5;;;4.1;;
68319;SDS011;55168;51.120;17.024;2024-01-27T05:22:00;10.5;;;4.1;;
68319;SDS011;55168;51.120;17.024;2024-01-27T05:23:00;10.5;;;4.1;;
68319;SDS011;55168;51.120;17.024;2024-01-27T05:24:00;12.0;;;4.3;;
68319;SDS011;55168;51.120;17.024;2024-01-27T05:25:00;12.0;;;4.3;;
68319;SDS011;55168;51.120;17.024;2024-01-27T05:26:00;12.0;;;4.3;;
68319;SDS011;55168;51.120;17.024;2024-01-27T05:27:00;12.0;;;4.3;;
68319;SDS011;55168;51.120;17.024;2024-01-27T05:28:00;12.0;;;4.3;;
68319;SDS011;55168;51.120;17.024;2024-01-27T05:29:00;11.1;;;4.6;;
68319;SDS011;55168;51.120;17.024;2024-01-27T05:30:00;11.1;;;4.6;;
68319;SDS011;55168;51.120;17.024;2024-01-27T05:31:00;11.1;;;4.6;;
68319;SDS011;55168;51.120;17.024;2024-01-27T05:32:00;11.1;;;4.6;;
68319;SDS011;55168;51.120;17.024;2024-01-27T05:33:00;11.1;;;4.6;;
68319;SDS011;55168;51.120;17.024;2024-01-27T05:34:00;12.5;;;4.8;;
68319;SDS011;55168;51.120;17.024;2024-01-27T05:35:00;12.5;;;4.8;;
68319;SDS011;55168;51.120;17.024;2024-01-27T05:36:00;12.5;;;4.8;;
68319;SDS011;55168;51.120;17.024;2024-01-27T05:37:00;12.5;;;4.8;;
68319;SDS011;55168;51.120;17.024;2024-01-27T05:38:00;12.5;;;4.8;;
68319;SDS011;55168;51.120;17.024;2024-01-27T05:39:00;11.2;;;4.5;;
68319;SDS011;55168;51.120;17.024;2024-01-27T05:40:00;11.2;;;4.5;;
68319;SDS011;55168;51.120;17.024;2024-01-27T05:41:01;11.2;;;4.5;;
68319;SDS011;55168;51.120;17.024;2024-01-27T05:42:00;11.2;;;4.5;;
68319;SDS011;55168;51.120;17.024;2024-01-27T05:43:00;11.2;;;4.5;;
68319;SDS011;55168;51.120;17.024;2024-01-27T05:44:00;11.1;;;4.6;;
68319;SDS011;55168;51.120;17.024;2024-01-27T05:45:00;11.1;;;4.6;;
68319;SDS011;55168;51.120;17.024;2024-01-27T05:46:00;11.1;;;4.6;;
68319;SDS011;55168;51.120;17.024;2024-01-27T05:47:00;11.1;;;4.6;;
68319;SDS011;55168;51.120;17.024;2024-01-27T05:48:00;11.1;;;4.6;;
68319;SDS011;55168;51.120;17.024;2024-01-27T05:49:00;11.8;;;4.9;;
68319;SDS011;55168;51.120;17.024;2024-01-27T05:50:00;11.8;;;4.9;;
68319;SDS011;55168;51.120;17.024;2024-01-27T05:51:00;11.8;;;4.9;;
68319;SDS011;55168;51.120;17.024;2024-01-27T05:52:00;11.8;;;4.9;;
68319;SDS011;55168;51.120;17.024;2024-01-27T05:53:00;11.8;;;4.9;;
68319;SDS011;55168;51.120;17.024;2024-01-27T05:54:00;13.4;;;4.7;;
68319;SDS011;55168;51.120;17.024;2024-01-27T05:55:02;13.4;;;4.7;;
68319;SDS011;55168;51.120;17.024;2024-01-27T05:56:00;13.4;;;4.7;;
68319;SDS011;55168;51.120;17.024;2024-01-27T05:57:00;13.4;;;4.7;;
68319;SDS011;55168;51.120;17.024;2024-01-27T05:58:00;13.4;;;4.7;;
68319;SDS011;55168;51.120;17.024;2024-01-27T05:59:00;10.9;;;4.2;;
68319;SDS011;55168;51.120;17.024;2024-01-27T06:00:00;10.9;;;4.2;;
68319;SDS011;55168;51.120;17.024;2024-01-27T06:01:00;10.9;;;4.2;;
68319;SDS011;55168;51.120;17.024;2024-01-27T06:02:00;10.9;;;4.2;;
68319;SDS011;55168;51.120;17.024;2024-01-27T06:03:00;10.9;;;4.2;;